createdAt,value
2023-03-24T00:03:59.316Z,11.61
2023-03-24T00:08:55.976Z,11.57
2023-03-24T00:13:52.659Z,11.54
2023-03-24T00:18:53.852Z,11.65
2023-03-24T00:23:56.236Z,11.65
2023-03-24T00:28:53.047Z,11.55
2023-03-24T00:33:51.276Z,11.66
2023-03-24T00:38:48.568Z,11.53
2023-03-24T00:43:50.935Z,11.64
2023-03-24T00:48:51.108Z,11.55
2023-03-24T00:53:47.767Z,11.64
2023-03-24T00:58:46.641Z,11.65
2023-03-24T01:03:48.244Z,11.56
2023-03-24T01:08:45.875Z,11.43
2023-03-24T01:13:42.616Z,11.43
2023-03-24T01:18:40.785Z,11.51
2023-03-24T01:23:37.425Z,11.49
2023-03-24T01:28:39.950Z,11.44
2023-03-24T01:33:37.711Z,11.33
2023-03-24T01:38:34.733Z,11.44
2023-03-24T01:43:33.629Z,11.29
2023-03-24T01:48:38.587Z,11.31
2023-03-24T01:53:38.878Z,11.31
2023-03-24T01:58:37.062Z,11.26
2023-03-24T02:03:38.931Z,11.43
2023-03-24T02:08:48.325Z,11.42
2023-03-24T02:13:44.946Z,11.23
2023-03-24T02:19:00.573Z,11.40
2023-03-24T02:24:16.434Z,11.41
2023-03-24T02:29:31.318Z,11.39
2023-03-24T02:34:49.949Z,11.18
2023-03-24T02:40:20.877Z,11.19
2023-03-24T02:45:35.798Z,11.20
2023-03-24T02:50:42.274Z,11.37
2023-03-24T02:55:44.805Z,11.31
2023-03-24T03:00:47.522Z,11.32
2023-03-24T03:05:49.257Z,11.26
2023-03-24T03:10:47.827Z,11.22
2023-03-24T03:15:47.991Z,11.29
2023-03-24T03:20:53.152Z,11.19
2023-03-24T03:25:53.403Z,11.21
2023-03-24T03:30:59.312Z,11.21
2023-03-24T03:36:14.471Z,11.15
2023-03-24T03:41:11.387Z,11.22
2023-03-24T03:46:08.626Z,11.22
2023-03-24T03:51:13.909Z,11.29
2023-03-24T03:56:11.229Z,11.25
2023-03-24T04:01:07.642Z,11.41
2023-03-24T04:06:30.034Z,11.35
2023-03-24T04:11:34.144Z,11.49
2023-03-24T04:16:45.493Z,11.38
2023-03-24T04:22:03.018Z,11.56
2023-03-24T04:27:02.973Z,11.59
2023-03-24T04:32:05.831Z,11.52
2023-03-24T04:37:12.669Z,11.64
2023-03-24T04:42:21.132Z,11.59
2023-03-24T04:47:20.552Z,11.66
2023-03-24T04:52:18.074Z,11.57
2023-03-24T04:57:15.787Z,11.61
2023-03-24T05:02:12.481Z,11.60
2023-03-24T05:07:08.997Z,11.73
2023-03-24T05:12:06.380Z,11.61
2023-03-24T05:17:05.076Z,11.67
2023-03-24T05:22:01.890Z,11.63
2023-03-24T05:26:58.436Z,11.77
2023-03-24T05:31:54.931Z,11.67
2023-03-24T05:37:20.419Z,11.68
2023-03-24T05:42:27.927Z,11.75
2023-03-24T05:47:24.482Z,11.79
2023-03-24T05:52:21.526Z,11.97
2023-03-24T05:57:21.272Z,11.99
2023-03-24T06:02:34.627Z,11.99
2023-03-24T06:07:32.172Z,12.11
2023-03-24T06:32:45.394Z,12.16
2023-03-24T16:44:37.216Z,14.36
2023-03-24T16:49:37.843Z,14.25
2023-03-24T16:54:34.828Z,14.10
2023-03-24T16:59:32.558Z,14.18
2023-03-24T18:52:52.135Z,12.27
2023-03-24T21:26:58.029Z,11.10
2023-03-24T21:31:55.895Z,11.09
2023-03-24T21:36:55.427Z,11.14
2023-03-24T21:41:52.231Z,11.03
2023-03-24T21:46:48.749Z,11.00
2023-03-24T21:51:45.262Z,10.98
2023-03-24T21:56:41.764Z,10.92
2023-03-24T22:01:38.268Z,10.91
2023-03-24T22:06:37.725Z,10.93
2023-03-24T22:11:35.682Z,10.91
2023-03-24T22:16:33.007Z,10.83
2023-03-24T22:21:29.637Z,10.79
2023-03-24T22:26:26.179Z,10.79
2023-03-24T22:31:24.802Z,10.72
2023-03-24T22:36:21.313Z,10.70
2023-03-24T22:41:17.829Z,10.67
2023-03-24T22:46:14.343Z,10.64
2023-03-24T22:51:16.630Z,10.64
2023-03-24T22:56:13.732Z,10.63
2023-03-24T23:01:10.408Z,10.67
2023-03-24T23:06:07.321Z,10.75
2023-03-24T23:11:06.427Z,10.84
2023-03-24T23:16:02.914Z,10.80
2023-03-24T23:21:09.016Z,10.88
2023-03-24T23:26:11.153Z,10.85
2023-03-24T23:31:13.413Z,10.86
2023-03-24T23:36:15.980Z,10.79
2023-03-24T23:41:15.100Z,10.93
2023-03-24T23:46:11.874Z,10.89
2023-03-24T23:51:08.364Z,11.09
2023-03-24T23:56:07.233Z,11.07
